Terminal Aerodrome Forecast
Issued by NWS

Home | Current Version | Previous Version | Text Only | Print | Product List | Glossary On
Versions: 1 2 3 4 5 6 7 8 9 10 11 12 13
850
FTUS45 KRIW 281934 AAA
TAFRKS
TAF AMD
KRKS 281934Z 2820/2918 26012G20KT P6SM VCSH SCT060 BKN080
     FM290200 26010KT P6SM SCT090
     FM290700 21005KT P6SM FEW090=

USA.gov is the U.S. government's official web portal to all federal, state and local government web resources and services.